sensor_id;sensor_type;location;lat;lon;timestamp;pressure;altitude;pressure_sealevel;temperature;humidity
61900;BME280;47853;55.890;37.664;2023-06-14T00:02:11;99735.56;;;17.85;53.66
61900;BME280;47853;55.890;37.664;2023-06-14T00:04:37;99731.00;;;17.79;53.86
61900;BME280;47853;55.890;37.664;2023-06-14T00:07:02;99730.00;;;17.73;54.24
61900;BME280;47853;55.890;37.664;2023-06-14T00:09:27;99717.38;;;17.80;54.04
61900;BME280;47853;55.890;37.664;2023-06-14T00:11:53;99735.56;;;17.78;54.25
61900;BME280;47853;55.890;37.664;2023-06-14T00:14:18;99723.38;;;17.76;53.82
61900;BME280;47853;55.890;37.664;2023-06-14T00:16:44;99726.69;;;17.91;53.56
61900;BME280;47853;55.890;37.664;2023-06-14T00:19:09;99724.00;;;17.85;53.64
61900;BME280;47853;55.890;37.664;2023-06-14T00:21:34;99716.97;;;17.50;54.57
61900;BME280;47853;55.890;37.664;2023-06-14T00:24:00;99717.38;;;17.67;54.30
61900;BME280;47853;55.890;37.664;2023-06-14T00:26:26;99727.91;;;17.48;55.70
61900;BME280;47853;55.890;37.664;2023-06-14T00:28:52;99731.00;;;17.45;55.45
61900;BME280;47853;55.890;37.664;2023-06-14T00:31:17;99720.25;;;17.59;54.52
61900;BME280;47853;55.890;37.664;2023-06-14T00:33:43;99728.09;;;17.67;54.51
61900;BME280;47853;55.890;37.664;2023-06-14T00:36:08;99728.13;;;17.94;53.12
61900;BME280;47853;55.890;37.664;2023-06-14T00:38:33;99722.75;;;17.94;53.42
61900;BME280;47853;55.890;37.664;2023-06-14T00:40:59;99712.22;;;17.79;54.46
61900;BME280;47853;55.890;37.664;2023-06-14T00:43:25;99736.38;;;17.59;56.01
61900;BME280;47853;55.890;37.664;2023-06-14T00:45:50;99718.63;;;17.71;55.69
61900;BME280;47853;55.890;37.664;2023-06-14T00:48:15;99728.13;;;17.74;55.44
61900;BME280;47853;55.890;37.664;2023-06-14T00:50:41;99725.03;;;17.83;54.86
61900;BME280;47853;55.890;37.664;2023-06-14T00:53:07;99714.91;;;17.65;55.78
61900;BME280;47853;55.890;37.664;2023-06-14T00:55:32;99720.69;;;18.09;54.02
61900;BME280;47853;55.890;37.664;2023-06-14T00:57:58;99707.66;;;17.93;53.95
61900;BME280;47853;55.890;37.664;2023-06-14T01:00:23;99713.25;;;17.91;54.60
61900;BME280;47853;55.890;37.664;2023-06-14T01:02:49;99718.41;;;17.86;55.01
61900;BME280;47853;55.890;37.664;2023-06-14T01:05:15;99724.41;;;18.15;53.80
61900;BME280;47853;55.890;37.664;2023-06-14T01:08:05;99725.41;;;18.34;52.99
61900;BME280;47853;55.890;37.664;2023-06-14T01:11:07;99724.81;;;18.19;53.69
61900;BME280;47853;55.890;37.664;2023-06-14T01:13:39;99722.97;;;18.13;53.95
61900;BME280;47853;55.890;37.664;2023-06-14T01:16:06;99729.13;;;18.40;52.81
61900;BME280;47853;55.890;37.664;2023-06-14T01:18:33;99725.72;;;18.65;52.19
61900;BME280;47853;55.890;37.664;2023-06-14T01:20:59;99717.38;;;18.21;54.17
61900;BME280;47853;55.890;37.664;2023-06-14T01:23:24;99724.00;;;18.05;54.77
61900;BME280;47853;55.890;37.664;2023-06-14T01:25:50;99728.28;;;18.33;53.95
61900;BME280;47853;55.890;37.664;2023-06-14T01:28:16;99732.56;;;18.61;52.03
61900;BME280;47853;55.890;37.664;2023-06-14T01:30:44;99717.13;;;18.88;51.50
61900;BME280;47853;55.890;37.664;2023-06-14T01:33:11;99723.63;;;18.74;51.48
61900;BME280;47853;55.890;37.664;2023-06-14T01:35:36;99707.28;;;18.03;54.36
61900;BME280;47853;55.890;37.664;2023-06-14T01:38:03;99723.38;;;17.76;56.38
61900;BME280;47853;55.890;37.664;2023-06-14T01:40:30;99725.84;;;17.71;57.37
61900;BME280;47853;55.890;37.664;2023-06-14T01:42:56;99737.84;;;17.68;56.98
61900;BME280;47853;55.890;37.664;2023-06-14T01:45:23;99731.03;;;17.52;58.11
61900;BME280;47853;55.890;37.664;2023-06-14T01:47:49;99725.00;;;17.36;58.55
61900;BME280;47853;55.890;37.664;2023-06-14T01:50:15;99737.41;;;17.58;58.00
61900;BME280;47853;55.890;37.664;2023-06-14T01:52:40;99732.03;;;17.58;58.60
61900;BME280;47853;55.890;37.664;2023-06-14T01:55:06;99715.94;;;17.71;57.35
61900;BME280;47853;55.890;37.664;2023-06-14T01:57:31;99739.09;;;18.06;55.89
61900;BME280;47853;55.890;37.664;2023-06-14T01:59:57;99718.84;;;17.76;56.28
61900;BME280;47853;55.890;37.664;2023-06-14T02:02:22;99723.53;;;17.40;58.08
61900;BME280;47853;55.890;37.664;2023-06-14T02:04:48;99726.25;;;17.47;58.52
61900;BME280;47853;55.890;37.664;2023-06-14T02:07:13;99723.56;;;17.34;58.79
61900;BME280;47853;55.890;37.664;2023-06-14T02:09:39;99739.03;;;17.38;59.56
61900;BME280;47853;55.890;37.664;2023-06-14T02:12:05;99734.28;;;17.34;60.42
61900;BME280;47853;55.890;37.664;2023-06-14T02:14:30;99715.28;;;17.29;59.84
61900;BME280;47853;55.890;37.664;2023-06-14T02:16:56;99732.44;;;17.54;59.33
61900;BME280;47853;55.890;37.664;2023-06-14T02:19:21;99730.22;;;16.89;62.00
61900;BME280;47853;55.890;37.664;2023-06-14T02:21:47;99726.72;;;16.95;63.13
61900;BME280;47853;55.890;37.664;2023-06-14T02:24:13;99740.09;;;17.58;60.42
61900;BME280;47853;55.890;37.664;2023-06-14T02:26:38;99739.06;;;17.52;60.05
61900;BME280;47853;55.890;37.664;2023-06-14T02:29:04;99729.34;;;17.58;59.83
61900;BME280;47853;55.890;37.664;2023-06-14T02:31:30;99732.44;;;17.54;60.68
61900;BME280;47853;55.890;37.664;2023-06-14T02:33:55;99732.25;;;17.63;59.68
61900;BME280;47853;55.890;37.664;2023-06-14T02:36:20;99735.38;;;17.93;59.28
61900;BME280;47853;55.890;37.664;2023-06-14T02:38:46;99729.56;;;17.83;59.32
61900;BME280;47853;55.890;37.664;2023-06-14T02:41:11;99746.72;;;17.75;59.84
61900;BME280;47853;55.890;37.664;2023-06-14T02:43:36;99736.81;;;17.76;60.31
61900;BME280;47853;55.890;37.664;2023-06-14T02:46:02;99736.41;;;17.86;60.06
61900;BME280;47853;55.890;37.664;2023-06-14T02:48:27;99739.31;;;18.11;59.24
61900;BME280;47853;55.890;37.664;2023-06-14T02:50:53;99738.06;;;18.14;58.74
61900;BME280;47853;55.890;37.664;2023-06-14T02:53:18;99742.00;;;18.11;59.07
61900;BME280;47853;55.890;37.664;2023-06-14T02:55:43;99738.03;;;18.20;59.23
61900;BME280;47853;55.890;37.664;2023-06-14T02:58:09;99760.31;;;18.54;57.10
61900;BME280;47853;55.890;37.664;2023-06-14T03:00:34;99741.72;;;18.39;56.67
61900;BME280;47853;55.890;37.664;2023-06-14T03:02:59;99749.78;;;18.46;55.88
61900;BME280;47853;55.890;37.664;2023-06-14T03:05:25;99758.03;;;18.58;55.50
61900;BME280;47853;55.890;37.664;2023-06-14T03:07:50;99748.94;;;18.59;55.86
61900;BME280;47853;55.890;37.664;2023-06-14T03:10:15;99748.09;;;18.52;56.54
61900;BME280;47853;55.890;37.664;2023-06-14T03:12:41;99752.53;;;18.85;55.65
61900;BME280;47853;55.890;37.664;2023-06-14T03:15:07;99756.41;;;18.44;57.17
61900;BME280;47853;55.890;37.664;2023-06-14T03:17:32;99749.41;;;18.22;58.33
61900;BME280;47853;55.890;37.664;2023-06-14T03:19:58;99756.63;;;18.35;57.84
61900;BME280;47853;55.890;37.664;2023-06-14T03:22:23;99761.38;;;18.40;57.40
61900;BME280;47853;55.890;37.664;2023-06-14T03:24:48;99757.41;;;18.56;57.13
61900;BME280;47853;55.890;37.664;2023-06-14T03:27:14;99740.31;;;18.89;56.88
61900;BME280;47853;55.890;37.664;2023-06-14T03:29:39;99754.56;;;19.03;56.04
61900;BME280;47853;55.890;37.664;2023-06-14T03:32:05;99754.31;;;18.59;57.49
61900;BME280;47853;55.890;37.664;2023-06-14T03:34:30;99766.69;;;18.67;57.75
61900;BME280;47853;55.890;37.664;2023-06-14T03:36:55;99750.34;;;18.68;57.89
61900;BME280;47853;55.890;37.664;2023-06-14T03:39:21;99760.59;;;18.92;57.39
61900;BME280;47853;55.890;37.664;2023-06-14T03:41:46;99756.81;;;18.47;58.99
61900;BME280;47853;55.890;37.664;2023-06-14T03:44:15;99749.59;;;18.34;60.20
61900;BME280;47853;55.890;37.664;2023-06-14T03:46:40;99746.06;;;18.40;60.09
61900;BME280;47853;55.890;37.664;2023-06-14T03:49:06;99753.38;;;18.86;58.51
61900;BME280;47853;55.890;37.664;2023-06-14T03:51:31;99743.47;;;18.79;58.33
61900;BME280;47853;55.890;37.664;2023-06-14T03:53:56;99752.22;;;19.20;56.93
61900;BME280;47853;55.890;37.664;2023-06-14T03:56:22;99747.28;;;19.10;57.22
61900;BME280;47853;55.890;37.664;2023-06-14T03:58:47;99751.63;;;19.11;57.61
61900;BME280;47853;55.890;37.664;2023-06-14T04:01:13;99746.50;;;18.96;57.80
61900;BME280;47853;55.890;37.664;2023-06-14T04:03:38;99748.72;;;19.13;58.16
61900;BME280;47853;55.890;37.664;2023-06-14T04:06:04;99735.91;;;19.47;56.36
61900;BME280;47853;55.890;37.664;2023-06-14T04:08:29;99749.22;;;19.67;55.41
61900;BME280;47853;55.890;37.664;2023-06-14T04:10:55;99740.13;;;19.94;54.13
61900;BME280;47853;55.890;37.664;2023-06-14T04:13:20;99759.25;;;19.53;56.00
61900;BME280;47853;55.890;37.664;2023-06-14T04:15:45;99759.19;;;19.92;54.75
61900;BME280;47853;55.890;37.664;2023-06-14T04:18:11;99748.34;;;20.24;52.84
61900;BME280;47853;55.890;37.664;2023-06-14T04:20:37;99733.44;;;19.96;54.44
61900;BME280;47853;55.890;37.664;2023-06-14T04:23:16;99742.84;;;20.12;53.29
61900;BME280;47853;55.890;37.664;2023-06-14T04:25:41;99742.34;;;20.41;52.58
61900;BME280;47853;55.890;37.664;2023-06-14T04:28:07;99737.25;;;20.14;52.06
61900;BME280;47853;55.890;37.664;2023-06-14T04:30:32;99749.63;;;19.96;53.85
61900;BME280;47853;55.890;37.664;2023-06-14T04:32:57;99745.56;;;20.31;52.54
61900;BME280;47853;55.890;37.664;2023-06-14T04:35:23;99744.84;;;20.42;51.41
61900;BME280;47853;55.890;37.664;2023-06-14T04:37:48;99733.50;;;20.34;50.89
61900;BME280;47853;55.890;37.664;2023-06-14T04:40:13;99743.78;;;19.99;51.97
61900;BME280;47853;55.890;37.664;2023-06-14T04:42:39;99748.78;;;20.21;51.90
61900;BME280;47853;55.890;37.664;2023-06-14T04:45:05;99740.88;;;20.64;51.97
61900;BME280;47853;55.890;37.664;2023-06-14T04:47:30;99751.50;;;20.40;50.93
61900;BME280;47853;55.890;37.664;2023-06-14T04:49:57;99713.53;;;20.79;49.41
61900;BME280;47853;55.890;37.664;2023-06-14T04:52:23;99743.25;;;20.72;51.01
61900;BME280;47853;55.890;37.664;2023-06-14T04:54:48;99740.03;;;21.00;49.01
61900;BME280;47853;55.890;37.664;2023-06-14T04:57:14;99746.66;;;20.86;48.01
61900;BME280;47853;55.890;37.664;2023-06-14T04:59:40;99737.63;;;20.73;48.29
61900;BME280;47853;55.890;37.664;2023-06-14T05:02:05;99745.19;;;20.46;48.05
61900;BME280;47853;55.890;37.664;2023-06-14T05:04:30;99725.34;;;20.78;48.51
61900;BME280;47853;55.890;37.664;2023-06-14T05:06:56;99745.81;;;21.16;46.57
61900;BME280;47853;55.890;37.664;2023-06-14T05:09:21;99738.22;;;21.25;45.15
61900;BME280;47853;55.890;37.664;2023-06-14T05:11:47;99737.19;;;20.95;46.24
61900;BME280;47853;55.890;37.664;2023-06-14T05:14:12;99732.56;;;21.14;45.62
61900;BME280;47853;55.890;37.664;2023-06-14T05:16:37;99743.66;;;21.67;44.13
61900;BME280;47853;55.890;37.664;2023-06-14T05:19:03;99750.97;;;21.67;44.36
61900;BME280;47853;55.890;37.664;2023-06-14T05:21:28;99749.97;;;21.61;43.17
61900;BME280;47853;55.890;37.664;2023-06-14T05:23:54;99747.13;;;21.56;43.40
61900;BME280;47853;55.890;37.664;2023-06-14T05:26:19;99738.50;;;21.78;43.74
61900;BME280;47853;55.890;37.664;2023-06-14T05:28:44;99732.88;;;21.79;43.93
61900;BME280;47853;55.890;37.664;2023-06-14T05:31:10;99737.22;;;22.28;42.44
61900;BME280;47853;55.890;37.664;2023-06-14T05:33:35;99743.31;;;22.23;42.60
61900;BME280;47853;55.890;37.664;2023-06-14T05:36:00;99730.06;;;22.34;41.01
61900;BME280;47853;55.890;37.664;2023-06-14T05:38:26;99741.31;;;22.54;41.47
61900;BME280;47853;55.890;37.664;2023-06-14T05:40:51;99738.00;;;22.76;40.70
61900;BME280;47853;55.890;37.664;2023-06-14T05:43:16;99734.22;;;22.77;40.13
61900;BME280;47853;55.890;37.664;2023-06-14T05:45:42;99739.47;;;23.25;39.43
61900;BME280;47853;55.890;37.664;2023-06-14T05:48:07;99736.06;;;23.64;37.69
61900;BME280;47853;55.890;37.664;2023-06-14T05:50:32;99735.09;;;24.04;37.59
61900;BME280;47853;55.890;37.664;2023-06-14T05:52:58;99744.00;;;25.33;34.87
61900;BME280;47853;55.890;37.664;2023-06-14T05:55:23;99750.91;;;26.11;33.69
61900;BME280;47853;55.890;37.664;2023-06-14T05:57:48;99745.63;;;27.01;30.86
61900;BME280;47853;55.890;37.664;2023-06-14T06:00:14;99753.03;;;28.40;28.86
61900;BME280;47853;55.890;37.664;2023-06-14T06:02:41;99748.19;;;28.01;28.27
61900;BME280;47853;55.890;37.664;2023-06-14T06:05:06;99747.94;;;27.82;28.54
61900;BME280;47853;55.890;37.664;2023-06-14T06:07:32;99734.16;;;26.88;29.71
61900;BME280;47853;55.890;37.664;2023-06-14T06:09:57;99747.13;;;27.60;28.84
61900;BME280;47853;55.890;37.664;2023-06-14T06:12:23;99747.06;;;28.99;26.15
61900;BME280;47853;55.890;37.664;2023-06-14T06:14:48;99756.19;;;29.23;26.19
61900;BME280;47853;55.890;37.664;2023-06-14T06:17:13;99755.41;;;29.63;25.63
61900;BME280;47853;55.890;37.664;2023-06-14T06:19:39;99738.13;;;30.27;24.51
61900;BME280;47853;55.890;37.664;2023-06-14T06:22:04;99742.25;;;30.73;23.82
61900;BME280;47853;55.890;37.664;2023-06-14T06:24:29;99744.50;;;30.41;23.26
61900;BME280;47853;55.890;37.664;2023-06-14T06:26:55;99752.91;;;28.71;23.78
61900;BME280;47853;55.890;37.664;2023-06-14T06:29:20;99752.28;;;28.19;24.69
61900;BME280;47853;55.890;37.664;2023-06-14T06:31:45;99749.78;;;28.12;25.24
61900;BME280;47853;55.890;37.664;2023-06-14T06:34:11;99749.81;;;28.93;24.62
61900;BME280;47853;55.890;37.664;2023-06-14T06:36:39;99742.78;;;28.72;24.36
61900;BME280;47853;55.890;37.664;2023-06-14T06:39:05;99728.72;;;29.49;24.21
61900;BME280;47853;55.890;37.664;2023-06-14T06:41:30;99730.47;;;27.52;24.23
61900;BME280;47853;55.890;37.664;2023-06-14T06:43:55;99731.00;;;28.16;25.06
61900;BME280;47853;55.890;37.664;2023-06-14T06:46:21;99730.44;;;27.20;24.96
61900;BME280;47853;55.890;37.664;2023-06-14T06:48:46;99733.19;;;27.52;25.83
61900;BME280;47853;55.890;37.664;2023-06-14T06:51:11;99729.06;;;30.26;22.81
61900;BME280;47853;55.890;37.664;2023-06-14T06:53:37;99705.09;;;29.24;23.97
61900;BME280;47853;55.890;37.664;2023-06-14T06:56:02;99724.44;;;27.96;25.13
61900;BME280;47853;55.890;37.664;2023-06-14T06:58:27;99723.13;;;29.25;24.38
61900;BME280;47853;55.890;37.664;2023-06-14T07:00:53;99732.66;;;31.33;22.10
61900;BME280;47853;55.890;37.664;2023-06-14T07:03:18;99725.56;;;29.66;22.22
61900;BME280;47853;55.890;37.664;2023-06-14T07:05:44;99727.66;;;29.75;22.46
61900;BME280;47853;55.890;37.664;2023-06-14T07:08:09;99726.34;;;29.67;22.14
61900;BME280;47853;55.890;37.664;2023-06-14T07:10:34;99720.50;;;30.57;22.08
61900;BME280;47853;55.890;37.664;2023-06-14T07:12:59;99730.69;;;28.99;23.13
61900;BME280;47853;55.890;37.664;2023-06-14T07:15:25;99733.69;;;29.37;22.45
61900;BME280;47853;55.890;37.664;2023-06-14T07:17:50;99735.31;;;28.32;23.13
61900;BME280;47853;55.890;37.664;2023-06-14T07:20:16;99722.47;;;28.93;22.97
61900;BME280;47853;55.890;37.664;2023-06-14T07:22:41;99724.19;;;29.93;22.30
61900;BME280;47853;55.890;37.664;2023-06-14T07:25:11;99728.41;;;29.80;21.92
61900;BME280;47853;55.890;37.664;2023-06-14T07:27:37;99728.88;;;31.95;20.27
61900;BME280;47853;55.890;37.664;2023-06-14T07:30:03;99721.63;;;32.83;20.02
61900;BME280;47853;55.890;37.664;2023-06-14T07:32:28;99719.91;;;32.03;20.54
61900;BME280;47853;55.890;37.664;2023-06-14T07:34:53;99710.09;;;32.44;19.87
61900;BME280;47853;55.890;37.664;2023-06-14T07:37:19;99721.53;;;31.24;20.70
61900;BME280;47853;55.890;37.664;2023-06-14T07:39:44;99716.25;;;30.89;21.12
61900;BME280;47853;55.890;37.664;2023-06-14T07:42:10;99724.19;;;29.93;22.74
61900;BME280;47853;55.890;37.664;2023-06-14T07:44:35;99722.47;;;30.27;22.08
61900;BME280;47853;55.890;37.664;2023-06-14T07:47:00;99716.66;;;29.50;22.58
61900;BME280;47853;55.890;37.664;2023-06-14T07:49:30;99723.00;;;31.35;20.78
61900;BME280;47853;55.890;37.664;2023-06-14T07:51:55;99711.13;;;32.99;20.17
61900;BME280;47853;55.890;37.664;2023-06-14T07:54:20;99710.56;;;33.34;19.04
61900;BME280;47853;55.890;37.664;2023-06-14T07:56:46;99688.19;;;34.70;18.06
61900;BME280;47853;55.890;37.664;2023-06-14T07:59:11;99695.59;;;32.66;19.42
61900;BME280;47853;55.890;37.664;2023-06-14T08:01:36;99695.41;;;31.60;20.65
61900;BME280;47853;55.890;37.664;2023-06-14T08:04:02;99677.25;;;30.54;21.59
61900;BME280;47853;55.890;37.664;2023-06-14T08:06:27;99665.47;;;28.71;23.38
61900;BME280;47853;55.890;37.664;2023-06-14T08:08:53;99658.66;;;30.51;21.89
61900;BME280;47853;55.890;37.664;2023-06-14T08:11:18;99679.66;;;32.40;20.08
61900;BME280;47853;55.890;37.664;2023-06-14T08:13:46;99680.88;;;32.99;20.06
61900;BME280;47853;55.890;37.664;2023-06-14T08:16:23;99684.00;;;34.24;18.59
61900;BME280;47853;55.890;37.664;2023-06-14T08:18:51;99668.47;;;35.60;17.39
61900;BME280;47853;55.890;37.664;2023-06-14T08:21:16;99681.59;;;33.13;18.26
61900;BME280;47853;55.890;37.664;2023-06-14T08:23:42;99707.00;;;33.33;19.47
61900;BME280;47853;55.890;37.664;2023-06-14T08:26:07;99713.09;;;31.01;20.55
61900;BME280;47853;55.890;37.664;2023-06-14T08:28:32;99681.13;;;31.10;20.35
61900;BME280;47853;55.890;37.664;2023-06-14T08:30:58;99713.75;;;30.74;20.45
61900;BME280;47853;55.890;37.664;2023-06-14T08:33:23;99698.59;;;31.67;20.27
61900;BME280;47853;55.890;37.664;2023-06-14T08:35:48;99682.50;;;35.37;17.38
61900;BME280;47853;55.890;37.664;2023-06-14T08:38:14;99687.19;;;35.37;17.09
61900;BME280;47853;55.890;37.664;2023-06-14T08:40:40;99712.06;;;35.10;16.65
61900;BME280;47853;55.890;37.664;2023-06-14T08:43:06;99721.94;;;34.94;17.22
61900;BME280;47853;55.890;37.664;2023-06-14T08:45:31;99703.75;;;35.37;17.11
61900;BME280;47853;55.890;37.664;2023-06-14T08:47:57;99706.84;;;34.74;17.54
61900;BME280;47853;55.890;37.664;2023-06-14T08:50:24;99700.84;;;34.98;17.57
61900;BME280;47853;55.890;37.664;2023-06-14T08:52:54;99690.63;;;36.59;16.33
61900;BME280;47853;55.890;37.664;2023-06-14T08:55:21;99684.53;;;36.66;16.20
61900;BME280;47853;55.890;37.664;2023-06-14T08:57:47;99692.75;;;35.10;17.07
61900;BME280;47853;55.890;37.664;2023-06-14T09:00:13;99685.88;;;33.65;18.75
61900;BME280;47853;55.890;37.664;2023-06-14T09:02:39;99680.38;;;33.43;19.02
61900;BME280;47853;55.890;37.664;2023-06-14T09:05:05;99683.41;;;32.45;19.94
61900;BME280;47853;55.890;37.664;2023-06-14T09:07:30;99681.88;;;34.12;18.20
61900;BME280;47853;55.890;37.664;2023-06-14T09:10:14;99686.38;;;34.48;18.07
61900;BME280;47853;55.890;37.664;2023-06-14T09:12:40;99684.59;;;34.96;17.25
61900;BME280;47853;55.890;37.664;2023-06-14T09:15:06;99691.38;;;36.68;15.83
61900;BME280;47853;55.890;37.664;2023-06-14T09:17:38;99689.88;;;37.13;15.54
61900;BME280;47853;55.890;37.664;2023-06-14T09:20:08;99680.03;;;35.53;16.48
61900;BME280;47853;55.890;37.664;2023-06-14T09:22:34;99681.41;;;36.16;16.27
61900;BME280;47853;55.890;37.664;2023-06-14T09:24:59;99675.41;;;36.44;16.40
61900;BME280;47853;55.890;37.664;2023-06-14T09:27:26;99685.88;;;37.57;15.69
61900;BME280;47853;55.890;37.664;2023-06-14T09:29:51;99680.19;;;36.05;16.43
61900;BME280;47853;55.890;37.664;2023-06-14T09:32:16;99680.53;;;35.29;17.23
61900;BME280;47853;55.890;37.664;2023-06-14T09:34:42;99681.06;;;35.79;16.71
61900;BME280;47853;55.890;37.664;2023-06-14T09:37:07;99680.16;;;36.13;16.69
61900;BME280;47853;55.890;37.664;2023-06-14T09:39:33;99675.38;;;35.10;17.30
61900;BME280;47853;55.890;37.664;2023-06-14T09:41:58;99669.59;;;36.07;16.42
61900;BME280;47853;55.890;37.664;2023-06-14T09:44:25;99682.81;;;36.31;16.24
61900;BME280;47853;55.890;37.664;2023-06-14T09:46:51;99667.91;;;35.19;17.31
61900;BME280;47853;55.890;37.664;2023-06-14T09:49:19;99664.66;;;34.82;17.46
61900;BME280;47853;55.890;37.664;2023-06-14T09:51:45;99656.75;;;34.13;17.77
61900;BME280;47853;55.890;37.664;2023-06-14T09:54:20;99665.50;;;34.16;18.27
61900;BME280;47853;55.890;37.664;2023-06-14T09:56:51;99649.47;;;34.18;17.73
61900;BME280;47853;55.890;37.664;2023-06-14T09:59:20;99646.16;;;33.35;18.83
61900;BME280;47853;55.890;37.664;2023-06-14T10:01:48;99650.81;;;33.03;19.28
61900;BME280;47853;55.890;37.664;2023-06-14T10:04:15;99657.50;;;33.96;18.69
61900;BME280;47853;55.890;37.664;2023-06-14T10:06:45;99649.44;;;32.26;20.26
61900;BME280;47853;55.890;37.664;2023-06-14T10:09:11;99647.19;;;33.79;18.98
61900;BME280;47853;55.890;37.664;2023-06-14T10:11:38;99634.94;;;34.96;17.68
61900;BME280;47853;55.890;37.664;2023-06-14T10:14:05;99630.75;;;33.57;18.85
61900;BME280;47853;55.890;37.664;2023-06-14T10:16:34;99633.53;;;33.97;18.93
61900;BME280;47853;55.890;37.664;2023-06-14T10:19:04;99631.84;;;34.45;18.10
61900;BME280;47853;55.890;37.664;2023-06-14T10:21:41;99635.78;;;34.53;18.96
61900;BME280;47853;55.890;37.664;2023-06-14T10:24:12;99632.63;;;31.72;20.76
61900;BME280;47853;55.890;37.664;2023-06-14T10:26:54;99628.63;;;31.50;21.14
61900;BME280;47853;55.890;37.664;2023-06-14T10:29:20;99626.03;;;33.48;19.14
61900;BME280;47853;55.890;37.664;2023-06-14T10:31:47;99626.28;;;34.19;17.79
61900;BME280;47853;55.890;37.664;2023-06-14T10:34:21;99609.63;;;34.41;18.21
61900;BME280;47853;55.890;37.664;2023-06-14T10:37:20;99607.91;;;32.28;20.06
61900;BME280;47853;55.890;37.664;2023-06-14T10:39:46;99607.13;;;32.28;20.28
61900;BME280;47853;55.890;37.664;2023-06-14T10:42:13;99628.75;;;33.17;19.38
61900;BME280;47853;55.890;37.664;2023-06-14T10:44:39;99630.09;;;35.11;18.45
61900;BME280;47853;55.890;37.664;2023-06-14T10:47:10;99609.66;;;34.59;18.35
61900;BME280;47853;55.890;37.664;2023-06-14T10:52:08;99621.50;;;34.51;17.74
61900;BME280;47853;55.890;37.664;2023-06-14T10:54:33;99605.78;;;33.21;18.64
61900;BME280;47853;55.890;37.664;2023-06-14T10:56:59;99603.75;;;33.36;18.85
61900;BME280;47853;55.890;37.664;2023-06-14T10:59:24;99605.69;;;34.07;18.00
61900;BME280;47853;55.890;37.664;2023-06-14T11:05:03;99611.59;;;35.20;17.39
61900;BME280;47853;55.890;37.664;2023-06-14T11:07:55;99605.63;;;34.74;17.77
61900;BME280;47853;55.890;37.664;2023-06-14T11:10:43;99609.47;;;34.29;17.66
61900;BME280;47853;55.890;37.664;2023-06-14T11:13:09;99608.16;;;32.68;19.05
61900;BME280;47853;55.890;37.664;2023-06-14T11:15:36;99606.41;;;33.81;18.79
61900;BME280;47853;55.890;37.664;2023-06-14T11:18:06;99596.50;;;34.82;17.02
61900;BME280;47853;55.890;37.664;2023-06-14T11:20:34;99602.34;;;35.07;17.20
61900;BME280;47853;55.890;37.664;2023-06-14T11:22:59;99596.94;;;34.05;17.55
61900;BME280;47853;55.890;37.664;2023-06-14T11:25:25;99599.16;;;32.54;17.92
61900;BME280;47853;55.890;37.664;2023-06-14T11:27:51;99580.09;;;31.79;17.79
61900;BME280;47853;55.890;37.664;2023-06-14T11:30:17;99600.28;;;33.21;18.02
61900;BME280;47853;55.890;37.664;2023-06-14T11:32:46;99601.50;;;34.27;16.84
61900;BME280;47853;55.890;37.664;2023-06-14T11:35:12;99578.59;;;33.92;17.31
61900;BME280;47853;55.890;37.664;2023-06-14T11:37:37;99603.53;;;35.54;16.64
61900;BME280;47853;55.890;37.664;2023-06-14T11:40:04;99598.22;;;33.04;18.42
61900;BME280;47853;55.890;37.664;2023-06-14T11:42:31;99582.22;;;34.19;17.87
61900;BME280;47853;55.890;37.664;2023-06-14T11:44:56;99585.66;;;34.51;17.48
61900;BME280;47853;55.890;37.664;2023-06-14T11:47:22;99592.78;;;36.21;16.65
61900;BME280;47853;55.890;37.664;2023-06-14T11:49:48;99577.31;;;36.84;16.55
61900;BME280;47853;55.890;37.664;2023-06-14T11:52:14;99569.75;;;34.74;18.18
61900;BME280;47853;55.890;37.664;2023-06-14T11:54:39;99583.81;;;34.20;18.20
61900;BME280;47853;55.890;37.664;2023-06-14T11:57:08;99563.97;;;33.91;18.34
61900;BME280;47853;55.890;37.664;2023-06-14T11:59:40;99581.41;;;33.60;19.17
61900;BME280;47853;55.890;37.664;2023-06-14T12:02:08;99587.31;;;32.53;20.25
61900;BME280;47853;55.890;37.664;2023-06-14T12:04:34;99575.94;;;33.37;19.52
61900;BME280;47853;55.890;37.664;2023-06-14T12:07:12;99568.59;;;32.55;19.66
61900;BME280;47853;55.890;37.664;2023-06-14T12:09:37;99570.50;;;33.23;19.43
61900;BME280;47853;55.890;37.664;2023-06-14T12:12:03;99561.47;;;33.54;19.13
61900;BME280;47853;55.890;37.664;2023-06-14T12:14:29;99554.66;;;34.89;18.54
61900;BME280;47853;55.890;37.664;2023-06-14T12:17:04;99555.50;;;34.72;17.37
61900;BME280;47853;55.890;37.664;2023-06-14T12:19:30;99558.25;;;33.30;18.89
61900;BME280;47853;55.890;37.664;2023-06-14T12:21:59;99568.94;;;33.31;19.09
61900;BME280;47853;55.890;37.664;2023-06-14T12:24:28;99555.41;;;32.66;18.98
61900;BME280;47853;55.890;37.664;2023-06-14T12:26:53;99555.50;;;32.75;19.52
61900;BME280;47853;55.890;37.664;2023-06-14T12:29:19;99557.16;;;33.08;19.39
61900;BME280;47853;55.890;37.664;2023-06-14T12:31:44;99544.97;;;33.23;19.22
61900;BME280;47853;55.890;37.664;2023-06-14T12:34:09;99551.09;;;33.51;18.64
61900;BME280;47853;55.890;37.664;2023-06-14T12:36:35;99550.59;;;33.18;18.86
61900;BME280;47853;55.890;37.664;2023-06-14T12:39:00;99546.53;;;33.47;18.76
61900;BME280;47853;55.890;37.664;2023-06-14T12:41:26;99541.56;;;34.51;18.04
61900;BME280;47853;55.890;37.664;2023-06-14T12:43:51;99551.56;;;35.47;17.27
61900;BME280;47853;55.890;37.664;2023-06-14T12:46:16;99542.38;;;34.69;17.36
61900;BME280;47853;55.890;37.664;2023-06-14T12:48:42;99550.13;;;35.41;16.91
61900;BME280;47853;55.890;37.664;2023-06-14T12:51:07;99537.03;;;34.55;17.56
61900;BME280;47853;55.890;37.664;2023-06-14T12:53:33;99529.50;;;35.08;16.99